Lolo, MT (59847)

11:35 AM MST on February 10, 2016 (GMT -0700)
Linda Vista | | Change Station
CLOSE
Current Station
Personal Weather Station
Location: Missoula, MT
Elevation: 3353 ft
Nearby Weather Stations
Active Advisory: Freezing Fog Advisory

Elev 3353 ft 46.81 °N, 114.06 °W | Updated 3 minutes ago

Fog
Fog
32.8 °F
Feels Like 33 °F
N
1.1
Wind Variable Wind from WNW
Gusts 1.6 mph

Today
High -- | Low -- °F
--% Chance of Precip.
Yesterday
High -- | Low -- °F
Precip. -- in
Pressure 30.32 in
Visibility 0.2 miles
Clouds
Windchill 33 °F
Dew Point 28 °F
Humidity 82%
Rainfall 0.00 in
Snow Depth Not available.
7:48 AM 5:53 PM
Waxing Crescent, 6% visible
SPECI KMSO 101806Z 26004KT 1/4SM FZFG VV002 M03/M04 A3032 RMK AO2 T10281039
Pressure 30.32 in
Visibility 0.2 miles
Clouds
Windchill 33 °F
Dew Point 28 °F
Humidity 82%
Rainfall 0.00 in
Snow Depth Not available.
7:48 AM 5:53 PM
Waxing Crescent, 6% visible
SPECI KMSO 101806Z 26004KT 1/4SM FZFG VV002 M03/M04 A3032 RMK AO2 T10281039

10-Day Weather Forecast

Almanac

Astronomy

Feb. 10, 2016 Rise Set
Actual Time
Civil Twilight
Nautical Twilight
Astronomical Twilight
Moon
Length of Visible Light
Length of Day
Tomorrow will be .
, % of the Moon is Illuminated

Today's Extremes

State Highs State Lows

Community

WunderPhotos

Upload Photos

1,891,914 photos uploaded!

WunderBlog® & News

Nearby

Air Quality

  Air Quality AQ Index Pollutant
Not available.

Snow Depth

Station Depth Elevation

Earthquake Activity

City Distance Mag. Time & Date
Minimum magnitude displayed is 2.5.

Coastal Water Temperatures

Place Temperature

Stations

Nearby Weather Stations

Station Location Temp. Windchill Dew Point Humidity Wind Precip. Elev Updated Type
                   

Watches & Warnings

Freezing Fog Advisory
Issued: 6:23 AM MST Feb. 10, 2016 – National Weather Service

... Freezing fog advisory in effect until noon MST today...

The National Weather Service in Missoula has issued a freezing
fog advisory... which is in effect until noon MST today.

* Impacts/timing: patchy dense fog will expand through this
morning especially in the Missoula valley and the Interstate 90
corridor from Bearmouth to Haugan.

* Visibility: less than one quarter mile

* locations impacted include... Evaro hill... Highway 200 Thompson
Falls to plains... Highway 200 Trout Creek to Heron... I-90
Lookout Pass to Haugan... Bitterroot valley... Missoula...
Highway 200 Bonner to Greenough... Highway 83 Seeley Lake to
Condon... I- 90 East Missoula to Bearmouth

Precautionary/preparedness actions...

A freezing fog advisory means visibilities will frequently be
reduced to less than one quarter mile. If driving... slow down...
use your headlights... and leave plenty of distance ahead of you.
Also... be alert for frost on bridge decks causing slippery roads.